Time;durP1;ratioP1;P1;durP2;ratioP2;P2;SDS_P1;SDS_P2;PMS_P1;PMS_P2;Temp;Humidity;BMP_temperature;BMP_pressure;BME280_temperature;BME280_humidity;BME280_pressure;Samples;Min_cycle;Max_cycle;Signal;HPM_P1;HPM_P2
2023/12/05 00:01:12;;;;;;;6.43;5.82;;;;;;;;;;5043361;28;20069;-60
2023/12/05 00:03:41;;;;;;;7.13;6.63;;;;;;;;;;5041550;28;20053;-59
2023/12/05 00:06:12;;;;;;;7.20;6.60;;;;;;;;;;5046939;28;20064;-58
2023/12/05 00:08:40;;;;;;;6.72;6.13;;;;;;;;;;5040404;28;20053;-58
2023/12/05 00:11:10;;;;;;;6.07;5.47;;;;;;;;;;5046806;28;20085;-60
2023/12/05 00:13:38;;;;;;;7.22;6.53;;;;;;;;;;5047211;28;20115;-57
2023/12/05 00:16:07;;;;;;;6.13;5.63;;;;;;;;;;5045934;28;20045;-58
2023/12/05 00:18:38;;;;;;;6.95;6.35;;;;;;;;;;5036487;28;20044;-59
2023/12/05 00:21:07;;;;;;;6.28;5.78;;;;;;;;;;5047625;28;20056;-59
2023/12/05 00:23:35;;;;;;;7.45;6.72;;;;;;;;;;5045101;28;20114;-59
2023/12/05 00:26:03;;;;;;;7.43;6.70;;;;;;;;;;5043391;28;20077;-59
2023/12/05 00:28:33;;;;;;;6.07;5.57;;;;;;;;;;5044740;28;20045;-58
2023/12/05 00:31:01;;;;;;;6.50;5.53;;;;;;;;;;5046684;28;20131;-58
2023/12/05 00:33:30;;;;;;;6.80;6.20;;;;;;;;;;5043093;28;20135;-60
2023/12/05 00:35:58;;;;;;;7.15;6.45;;;;;;;;;;5044379;28;20045;-59
2023/12/05 00:38:27;;;;;;;6.85;6.15;;;;;;;;;;5038779;28;20146;-59
2023/12/05 00:40:56;;;;;;;7.13;6.28;;;;;;;;;;5046404;28;20048;-60
2023/12/05 00:43:25;;;;;;;6.78;6.28;;;;;;;;;;5034690;28;20049;-59
2023/12/05 00:45:55;;;;;;;6.82;6.07;;;;;;;;;;5040154;28;20482;-59
2023/12/05 00:48:24;;;;;;;6.70;5.75;;;;;;;;;;5047373;28;20079;-59
2023/12/05 00:50:53;;;;;;;8.45;6.30;;;;;;;;;;5046698;28;20049;-59
2023/12/05 00:53:21;;;;;;;7.03;6.38;;;;;;;;;;5044105;28;20065;-58
2023/12/05 00:55:49;;;;;;;6.00;5.50;;;;;;;;;;5045876;28;20108;-59
2023/12/05 00:58:19;;;;;;;6.43;5.82;;;;;;;;;;5047583;28;20068;-59
2023/12/05 01:00:47;;;;;;;6.63;5.95;;;;;;;;;;5044108;28;20552;-60
2023/12/05 01:03:17;;;;;;;6.32;5.72;;;;;;;;;;5043165;28;20490;-58
2023/12/05 01:05:48;;;;;;;7.68;6.95;;;;;;;;;;5044265;28;20054;-61
2023/12/05 01:08:16;;;;;;;6.13;5.57;;;;;;;;;;5044610;28;20065;-59
2023/12/05 01:10:45;;;;;;;6.07;5.57;;;;;;;;;;5045378;28;20041;-59
2023/12/05 01:13:13;;;;;;;6.07;5.45;;;;;;;;;;5050123;28;20380;-59
2023/12/05 01:15:42;;;;;;;6.68;6.00;;;;;;;;;;5044707;28;20162;-58
2023/12/05 01:18:10;;;;;;;7.93;7.22;;;;;;;;;;5048046;28;20044;-61
2023/12/05 01:20:40;;;;;;;7.28;6.05;;;;;;;;;;5037027;28;20139;-62
2023/12/05 01:23:08;;;;;;;7.53;6.82;;;;;;;;;;5046277;28;20044;-59
2023/12/05 01:25:37;;;;;;;8.52;7.63;;;;;;;;;;5037875;28;20111;-59
2023/12/05 01:28:05;;;;;;;6.47;5.97;;;;;;;;;;5042807;28;20061;-59
2023/12/05 01:30:33;;;;;;;6.57;6.03;;;;;;;;;;5045077;28;20162;-58
2023/12/05 01:33:02;;;;;;;6.57;6.00;;;;;;;;;;5045208;28;20385;-61
2023/12/05 01:35:31;;;;;;;7.18;6.45;;;;;;;;;;5038629;28;20112;-58
2023/12/05 01:38:01;;;;;;;7.40;6.70;;;;;;;;;;5049048;28;20501;-59
2023/12/05 01:40:29;;;;;;;7.15;6.45;;;;;;;;;;5048383;28;20072;-59
2023/12/05 01:42:57;;;;;;;6.82;6.22;;;;;;;;;;5045922;28;20095;-60
2023/12/05 01:45:26;;;;;;;7.43;6.70;;;;;;;;;;5047093;28;20146;-58
2023/12/05 01:47:55;;;;;;;7.25;6.63;;;;;;;;;;5045201;28;20053;-63
2023/12/05 01:50:25;;;;;;;9.07;6.93;;;;;;;;;;5048709;28;20053;-58
2023/12/05 01:52:55;;;;;;;6.22;5.63;;;;;;;;;;5048996;28;20110;-58
2023/12/05 01:55:25;;;;;;;7.97;7.28;;;;;;;;;;5042047;28;20395;-59
2023/12/05 01:57:53;;;;;;;7.65;6.95;;;;;;;;;;5042146;28;20045;-60
2023/12/05 02:00:23;;;;;;;6.63;6.03;;;;;;;;;;5043787;28;20049;-60
2023/12/05 02:02:52;;;;;;;6.88;6.18;;;;;;;;;;5048236;28;20049;-60
2023/12/05 02:05:20;;;;;;;7.40;6.13;;;;;;;;;;5044982;28;20045;-61
2023/12/05 02:07:49;;;;;;;7.63;6.90;;;;;;;;;;5044354;28;20052;-60
2023/12/05 02:10:17;;;;;;;7.97;5.63;;;;;;;;;;5039641;28;20072;-59
2023/12/05 02:12:47;;;;;;;6.35;5.75;;;;;;;;;;5037895;28;20114;-64
2023/12/05 02:15:17;;;;;;;6.78;6.15;;;;;;;;;;5044501;28;20063;-59
2023/12/05 02:17:49;;;;;;;7.50;6.43;;;;;;;;;;5045630;28;20115;-60
2023/12/05 02:20:21;;;;;;;6.88;6.28;;;;;;;;;;5046556;28;20056;-59
2023/12/05 02:22:58;;;;;;;5.75;5.25;;;;;;;;;;5046859;28;20511;-59
2023/12/05 02:25:33;;;;;;;6.07;5.47;;;;;;;;;;5044693;28;20051;-62
2023/12/05 02:28:03;;;;;;;7.22;6.35;;;;;;;;;;5046087;28;20053;-58
2023/12/05 02:30:32;;;;;;;6.32;5.72;;;;;;;;;;5041264;28;20130;-59
2023/12/05 02:33:00;;;;;;;7.45;6.85;;;;;;;;;;5046225;28;20120;-61
2023/12/05 02:35:29;;;;;;;6.45;5.90;;;;;;;;;;5046845;28;20041;-62
2023/12/05 02:37:59;;;;;;;6.53;6.03;;;;;;;;;;5044733;28;20099;-60
2023/12/05 02:40:29;;;;;;;6.22;5.78;;;;;;;;;;5045368;28;20482;-62
2023/12/05 02:42:58;;;;;;;7.00;6.30;;;;;;;;;;5044833;28;20099;-59
2023/12/05 02:45:30;;;;;;;6.20;5.60;;;;;;;;;;5042357;28;20049;-61
2023/12/05 02:47:59;;;;;;;7.30;6.60;;;;;;;;;;5043326;28;20061;-59
2023/12/05 02:50:28;;;;;;;6.13;5.53;;;;;;;;;;5042499;28;20068;-60
2023/12/05 02:52:56;;;;;;;6.90;6.35;;;;;;;;;;5045292;28;20041;-58
2023/12/05 02:55:25;;;;;;;6.00;5.50;;;;;;;;;;5046309;28;20044;-58
2023/12/05 02:57:53;;;;;;;5.90;5.38;;;;;;;;;;5036666;28;20123;-59
2023/12/05 03:00:22;;;;;;;6.03;5.53;;;;;;;;;;5040326;28;20137;-61
2023/12/05 03:02:52;;;;;;;6.57;5.95;;;;;;;;;;5038014;28;20498;-58
2023/12/05 03:05:20;;;;;;;6.30;5.80;;;;;;;;;;5048629;28;20056;-59
2023/12/05 03:07:48;;;;;;;7.72;6.05;;;;;;;;;;5042274;28;20136;-61
2023/12/05 03:10:17;;;;;;;6.22;5.72;;;;;;;;;;5046977;28;20037;-61
2023/12/05 03:12:45;;;;;;;6.20;5.55;;;;;;;;;;5035839;28;20064;-60
2023/12/05 03:15:13;;;;;;;6.93;6.20;;;;;;;;;;5046475;28;20045;-61
2023/12/05 03:17:42;;;;;;;5.95;5.45;;;;;;;;;;5040884;28;20061;-59
2023/12/05 03:20:12;;;;;;;5.93;5.38;;;;;;;;;;5045829;28;20413;-58
2023/12/05 03:22:40;;;;;;;6.50;5.85;;;;;;;;;;5042886;28;20450;-62
2023/12/05 03:25:09;;;;;;;6.10;5.57;;;;;;;;;;5045304;28;20055;-60
2023/12/05 03:27:38;;;;;;;5.72;5.13;;;;;;;;;;5045129;28;20056;-59
2023/12/05 03:30:06;;;;;;;6.00;5.38;;;;;;;;;;5040095;28;20367;-62
2023/12/05 03:32:35;;;;;;;5.57;5.18;;;;;;;;;;5044630;28;20102;-58
2023/12/05 03:35:04;;;;;;;6.55;5.95;;;;;;;;;;5048072;28;20051;-59
2023/12/05 03:37:33;;;;;;;6.18;5.63;;;;;;;;;;5042428;28;20043;-60
2023/12/05 03:40:02;;;;;;;6.85;6.22;;;;;;;;;;5045305;28;20407;-61
2023/12/05 03:42:30;;;;;;;5.88;5.28;;;;;;;;;;5041636;28;20134;-59
2023/12/05 03:44:58;;;;;;;6.45;5.60;;;;;;;;;;5047517;28;20057;-58
2023/12/05 03:47:27;;;;;;;5.75;5.28;;;;;;;;;;5036799;28;20041;-60
2023/12/05 03:49:56;;;;;;;8.82;5.38;;;;;;;;;;5045861;28;20449;-60
2023/12/05 03:52:24;;;;;;;5.68;5.18;;;;;;;;;;5042652;28;20091;-59
2023/12/05 03:54:54;;;;;;;6.47;5.72;;;;;;;;;;5045267;28;20233;-58
2023/12/05 03:57:22;;;;;;;5.68;5.20;;;;;;;;;;5036836;28;20056;-59
2023/12/05 03:59:51;;;;;;;5.22;4.82;;;;;;;;;;5034280;28;20045;-59
2023/12/05 04:02:19;;;;;;;6.80;6.18;;;;;;;;;;5036739;28;20045;-60
2023/12/05 04:04:47;;;;;;;5.78;5.22;;;;;;;;;;5047112;28;20109;-59
2023/12/05 04:07:16;;;;;;;5.93;5.32;;;;;;;;;;5040936;28;20132;-59
2023/12/05 04:09:46;;;;;;;5.40;5.00;;;;;;;;;;5039465;28;20053;-60
2023/12/05 04:12:16;;;;;;;5.65;5.15;;;;;;;;;;5046965;28;20060;-61
2023/12/05 04:14:45;;;;;;;5.60;5.03;;;;;;;;;;5042909;28;20053;-62
2023/12/05 04:17:13;;;;;;;4.80;4.40;;;;;;;;;;5039150;28;20061;-59
2023/12/05 04:19:41;;;;;;;5.40;4.90;;;;;;;;;;5036475;28;20053;-60
2023/12/05 04:22:10;;;;;;;5.35;4.95;;;;;;;;;;5045968;28;20044;-60
2023/12/05 04:24:38;;;;;;;5.53;4.97;;;;;;;;;;5047564;28;20056;-59
2023/12/05 04:27:07;;;;;;;5.90;4.90;;;;;;;;;;5046722;28;20049;-60
2023/12/05 04:29:36;;;;;;;6.07;5.53;;;;;;;;;;5038703;28;20041;-63
2023/12/05 04:32:06;;;;;;;5.30;4.82;;;;;;;;;;5046400;28;20538;-61
2023/12/05 04:34:35;;;;;;;5.03;4.65;;;;;;;;;;5050237;28;20075;-59
2023/12/05 04:37:05;;;;;;;5.20;4.80;;;;;;;;;;5046724;28;20102;-60
2023/12/05 04:39:33;;;;;;;5.18;4.78;;;;;;;;;;5045819;28;20694;-62
2023/12/05 04:42:01;;;;;;;5.43;4.93;;;;;;;;;;5041849;28;20132;-59
2023/12/05 04:44:30;;;;;;;5.47;5.07;;;;;;;;;;5049346;28;20048;-59
2023/12/05 04:47:01;;;;;;;6.30;4.97;;;;;;;;;;5047970;28;20073;-60
2023/12/05 04:49:30;;;;;;;7.28;4.30;;;;;;;;;;5049840;28;20052;-60
2023/12/05 04:51:58;;;;;;;4.97;4.57;;;;;;;;;;5043107;28;20073;-60
2023/12/05 04:54:27;;;;;;;4.93;4.45;;;;;;;;;;5044521;28;20048;-61
2023/12/05 04:56:57;;;;;;;8.68;5.13;;;;;;;;;;5043836;28;20045;-57
2023/12/05 04:59:26;;;;;;;6.68;4.57;;;;;;;;;;5045211;28;20061;-57
2023/12/05 05:01:55;;;;;;;5.13;4.72;;;;;;;;;;5048410;28;20079;-57
2023/12/05 05:04:24;;;;;;;5.82;3.90;;;;;;;;;;5049726;28;20052;-59
2023/12/05 05:06:53;;;;;;;4.20;3.90;;;;;;;;;;5045566;28;20131;-59
2023/12/05 05:09:24;;;;;;;4.18;3.88;;;;;;;;;;5049342;28;20053;-57
2023/12/05 05:11:53;;;;;;;8.43;5.20;;;;;;;;;;5038996;28;20041;-57
2023/12/05 05:14:21;;;;;;;5.47;4.97;;;;;;;;;;5048569;28;20058;-58
2023/12/05 05:16:50;;;;;;;4.68;4.03;;;;;;;;;;5045748;28;20053;-58
2023/12/05 05:19:18;;;;;;;5.40;4.35;;;;;;;;;;5049765;28;20209;-57
2023/12/05 05:21:48;;;;;;;4.43;4.13;;;;;;;;;;5044229;28;20068;-58
2023/12/05 05:24:16;;;;;;;5.20;4.22;;;;;;;;;;5046103;28;20049;-56
2023/12/05 05:26:45;;;;;;;4.50;4.10;;;;;;;;;;5049812;28;20084;-59
2023/12/05 05:29:13;;;;;;;4.43;4.13;;;;;;;;;;5049010;28;20061;-57
2023/12/05 05:31:42;;;;;;;9.35;5.07;;;;;;;;;;5044856;28;20119;-56
2023/12/05 05:34:10;;;;;;;5.25;4.68;;;;;;;;;;5049322;28;20300;-58
2023/12/05 05:36:38;;;;;;;5.00;4.38;;;;;;;;;;5039869;28;20044;-59
2023/12/05 05:39:08;;;;;;;4.30;3.90;;;;;;;;;;5043093;28;20045;-59
2023/12/05 05:41:36;;;;;;;3.60;3.40;;;;;;;;;;5040422;28;20106;-60
2023/12/05 05:44:05;;;;;;;4.43;4.13;;;;;;;;;;5045483;28;20045;-57
2023/12/05 05:46:33;;;;;;;4.45;4.03;;;;;;;;;;5041429;28;20552;-56
2023/12/05 05:49:02;;;;;;;4.40;3.90;;;;;;;;;;5049462;28;20061;-60
2023/12/05 05:51:30;;;;;;;4.35;3.97;;;;;;;;;;5046402;28;20045;-58
2023/12/05 05:53:59;;;;;;;4.65;4.25;;;;;;;;;;5046067;28;20045;-59
2023/12/05 05:56:29;;;;;;;4.22;3.92;;;;;;;;;;5042563;28;20374;-57
2023/12/05 05:58:57;;;;;;;7.53;4.28;;;;;;;;;;5048248;28;20045;-56
2023/12/05 06:01:26;;;;;;;4.65;3.78;;;;;;;;;;5044962;28;20057;-58
2023/12/05 06:03:54;;;;;;;4.55;4.13;;;;;;;;;;5044622;28;20049;-57
2023/12/05 06:06:23;;;;;;;6.18;3.95;;;;;;;;;;5040079;28;20124;-57
2023/12/05 06:08:51;;;;;;;3.95;3.65;;;;;;;;;;5044022;28;20041;-57
2023/12/05 06:11:22;;;;;;;5.95;3.75;;;;;;;;;;5040459;28;20053;-58
2023/12/05 06:13:51;;;;;;;6.13;3.85;;;;;;;;;;5027682;28;20092;-58
2023/12/05 06:16:20;;;;;;;5.20;3.80;;;;;;;;;;5037654;28;20509;-60
2023/12/05 06:18:48;;;;;;;4.03;3.83;;;;;;;;;;5038871;28;20544;-59
2023/12/05 06:21:17;;;;;;;9.88;4.35;;;;;;;;;;5042944;28;20565;-60
2023/12/05 06:23:45;;;;;;;3.72;3.50;;;;;;;;;;5046384;28;20055;-61
2023/12/05 06:26:14;;;;;;;5.30;3.80;;;;;;;;;;5046629;28;20041;-61
2023/12/05 06:28:42;;;;;;;8.52;4.53;;;;;;;;;;5038989;28;20417;-58
2023/12/05 06:31:12;;;;;;;4.13;3.83;;;;;;;;;;5038803;28;20045;-60
2023/12/05 06:33:42;;;;;;;4.43;3.78;;;;;;;;;;5036791;28;20041;-63
2023/12/05 06:36:11;;;;;;;4.93;4.32;;;;;;;;;;5040538;28;20132;-59
2023/12/05 06:38:39;;;;;;;4.40;4.03;;;;;;;;;;5040055;28;20515;-62
2023/12/05 06:41:09;;;;;;;3.97;3.72;;;;;;;;;;5041631;28;20461;-58
2023/12/05 06:43:37;;;;;;;4.07;3.78;;;;;;;;;;5040539;28;20068;-61
2023/12/05 06:46:06;;;;;;;6.05;4.30;;;;;;;;;;5039081;28;20044;-58
2023/12/05 06:48:36;;;;;;;4.35;4.00;;;;;;;;;;5038530;28;20077;-63
2023/12/05 06:51:05;;;;;;;3.40;3.20;;;;;;;;;;5048237;28;20076;-58
2023/12/05 06:53:34;;;;;;;5.13;4.15;;;;;;;;;;5047099;28;20037;-57
2023/12/05 06:56:07;;;;;;;7.63;4.50;;;;;;;;;;5041741;28;20059;-59
2023/12/05 06:58:35;;;;;;;3.83;3.63;;;;;;;;;;5033813;28;20080;-59
2023/12/05 07:01:04;;;;;;;4.93;3.88;;;;;;;;;;5046390;28;20060;-60
2023/12/05 07:03:32;;;;;;;4.45;4.13;;;;;;;;;;5046505;28;20045;-60
2023/12/05 07:06:12;;;;;;;4.05;3.67;;;;;;;;;;5038810;28;20048;-59
2023/12/05 07:08:41;;;;;;;6.45;3.65;;;;;;;;;;5041037;28;20069;-61
2023/12/05 07:11:09;;;;;;;3.85;3.55;;;;;;;;;;5042875;28;20041;-60
2023/12/05 07:13:38;;;;;;;3.95;3.63;;;;;;;;;;5042644;28;20049;-58
2023/12/05 07:16:07;;;;;;;7.68;3.97;;;;;;;;;;5045742;28;20060;-61
2023/12/05 07:18:37;;;;;;;3.70;3.50;;;;;;;;;;5046342;28;20053;-59
2023/12/05 07:21:08;;;;;;;6.13;3.80;;;;;;;;;;5045415;28;20057;-61
2023/12/05 07:23:38;;;;;;;4.85;3.80;;;;;;;;;;5041100;28;20059;-61
2023/12/05 07:26:09;;;;;;;3.58;3.38;;;;;;;;;;5037085;28;20052;-58
2023/12/05 07:28:38;;;;;;;5.18;3.85;;;;;;;;;;5043443;28;20048;-59
2023/12/05 07:31:06;;;;;;;6.30;3.60;;;;;;;;;;5046558;28;20437;-59
2023/12/05 07:33:35;;;;;;;4.18;3.70;;;;;;;;;;5040259;28;20088;-58
2023/12/05 07:36:05;;;;;;;4.80;4.30;;;;;;;;;;5037522;28;20072;-58
2023/12/05 07:38:33;;;;;;;9.57;4.13;;;;;;;;;;5036896;28;20100;-68
2023/12/05 07:41:03;;;;;;;6.85;4.00;;;;;;;;;;5044877;28;20544;-67
2023/12/05 07:43:32;;;;;;;3.60;3.33;;;;;;;;;;5044580;28;20579;-66
2023/12/05 07:46:00;;;;;;;4.35;3.53;;;;;;;;;;5035123;28;20050;-65
2023/12/05 07:48:29;;;;;;;5.28;3.90;;;;;;;;;;5034282;28;20068;-66
2023/12/05 07:50:57;;;;;;;4.25;3.38;;;;;;;;;;5039865;28;20058;-65
2023/12/05 07:53:26;;;;;;;5.85;3.50;;;;;;;;;;5045706;28;20045;-64
2023/12/05 07:55:54;;;;;;;4.72;3.70;;;;;;;;;;5044318;28;20049;-65
2023/12/05 07:58:24;;;;;;;5.50;4.22;;;;;;;;;;5041286;28;20405;-68
2023/12/05 08:00:53;;;;;;;4.22;3.47;;;;;;;;;;5049254;28;20045;-65
2023/12/05 08:03:21;;;;;;;3.55;3.25;;;;;;;;;;5049062;28;20128;-66
2023/12/05 08:05:50;;;;;;;4.63;4.22;;;;;;;;;;5050904;28;20049;-63
2023/12/05 08:08:18;;;;;;;4.57;3.40;;;;;;;;;;5043513;28;20053;-64
2023/12/05 08:10:47;;;;;;;3.97;3.78;;;;;;;;;;5037922;28;20473;-64
2023/12/05 08:13:15;;;;;;;3.75;3.45;;;;;;;;;;5037068;28;20073;-65
2023/12/05 08:15:45;;;;;;;9.27;4.47;;;;;;;;;;5042355;28;20041;-64
2023/12/05 08:18:14;;;;;;;4.80;3.80;;;;;;;;;;5047759;28;20136;-63
2023/12/05 08:20:42;;;;;;;3.85;3.53;;;;;;;;;;5045818;28;20043;-68
2023/12/05 08:23:11;;;;;;;4.47;4.07;;;;;;;;;;5049479;28;20087;-65
2023/12/05 08:25:39;;;;;;;16.05;8.20;;;;;;;;;;5042723;28;20059;-66
2023/12/05 08:28:07;;;;;;;15.55;9.68;;;;;;;;;;5038663;28;20057;-65
2023/12/05 08:30:37;;;;;;;9.40;6.50;;;;;;;;;;5046752;28;20049;-66
2023/12/05 08:33:07;;;;;;;6.47;4.55;;;;;;;;;;5048575;28;20041;-66
2023/12/05 08:35:36;;;;;;;7.00;5.40;;;;;;;;;;5035683;28;20055;-65
2023/12/05 08:38:05;;;;;;;7.30;5.78;;;;;;;;;;5039611;28;20711;-66
2023/12/05 08:40:33;;;;;;;5.10;4.78;;;;;;;;;;5044186;28;20053;-65
2023/12/05 08:43:04;;;;;;;4.47;4.07;;;;;;;;;;5036114;28;20048;-64
2023/12/05 08:45:33;;;;;;;4.43;4.13;;;;;;;;;;5042242;28;20045;-64
2023/12/05 08:48:02;;;;;;;4.85;4.45;;;;;;;;;;5043171;28;20361;-63
2023/12/05 08:50:33;;;;;;;5.55;4.55;;;;;;;;;;5042701;28;20050;-65
2023/12/05 08:53:02;;;;;;;7.45;5.32;;;;;;;;;;5039578;28;20045;-65
2023/12/05 08:55:31;;;;;;;9.00;5.22;;;;;;;;;;5040702;28;20055;-61
2023/12/05 08:57:59;;;;;;;6.07;5.03;;;;;;;;;;5040893;28;20102;-64
2023/12/05 09:00:28;;;;;;;9.45;4.95;;;;;;;;;;5042104;28;20057;-64
2023/12/05 09:02:57;;;;;;;4.90;4.40;;;;;;;;;;5046216;28;20059;-62
2023/12/05 09:05:25;;;;;;;5.15;4.22;;;;;;;;;;5047473;28;20052;-62
2023/12/05 09:07:56;;;;;;;11.88;4.13;;;;;;;;;;5049893;28;20049;-65
2023/12/05 09:10:25;;;;;;;6.15;3.90;;;;;;;;;;5048926;28;20053;-63
2023/12/05 09:12:54;;;;;;;5.70;4.80;;;;;;;;;;5034395;28;20184;-62
2023/12/05 09:15:22;;;;;;;5.28;4.13;;;;;;;;;;5041600;28;20522;-64
2023/12/05 09:17:53;;;;;;;4.45;4.00;;;;;;;;;;5049741;28;20122;-64
2023/12/05 09:20:21;;;;;;;4.60;3.85;;;;;;;;;;5046336;28;20037;-66
2023/12/05 09:22:50;;;;;;;4.22;3.90;;;;;;;;;;5043050;28;20049;-63
2023/12/05 09:25:29;;;;;;;4.82;3.63;;;;;;;;;;5034380;28;20045;-68
2023/12/05 09:27:57;;;;;;;6.43;4.25;;;;;;;;;;5040861;28;20507;-72
2023/12/05 09:30:26;;;;;;;4.13;3.83;;;;;;;;;;5044114;28;20059;-67
2023/12/05 09:32:54;;;;;;;8.98;3.90;;;;;;;;;;5037867;28;20041;-67
2023/12/05 09:35:25;;;;;;;4.68;4.28;;;;;;;;;;5044417;28;20501;-67
2023/12/05 09:37:53;;;;;;;4.38;4.05;;;;;;;;;;5042829;28;20049;-69
2023/12/05 09:40:22;;;;;;;4.80;4.40;;;;;;;;;;5039386;28;20067;-69
2023/12/05 09:42:53;;;;;;;3.65;3.40;;;;;;;;;;5050048;28;20055;-73
2023/12/05 09:45:27;;;;;;;6.63;3.90;;;;;;;;;;5041929;28;20053;-66
2023/12/05 09:48:00;;;;;;;4.05;3.75;;;;;;;;;;5043720;28;20383;-69
2023/12/05 09:50:29;;;;;;;4.22;3.90;;;;;;;;;;5046570;28;20056;-70
2023/12/05 09:53:00;;;;;;;5.20;3.60;;;;;;;;;;5044715;28;20581;-67
2023/12/05 09:55:29;;;;;;;4.47;3.33;;;;;;;;;;5044946;28;20052;-72
2023/12/05 09:57:59;;;;;;;4.53;4.13;;;;;;;;;;5049163;28;20070;-70
2023/12/05 10:00:28;;;;;;;6.05;4.07;;;;;;;;;;5040368;28;20045;-70
2023/12/05 10:02:58;;;;;;;4.90;3.28;;;;;;;;;;5043784;28;20144;-68
2023/12/05 10:05:27;;;;;;;6.45;4.13;;;;;;;;;;5045218;28;20110;-68
2023/12/05 10:07:57;;;;;;;8.80;4.15;;;;;;;;;;5046859;28;20049;-67
2023/12/05 10:10:26;;;;;;;4.22;3.83;;;;;;;;;;5040427;28;20057;-67
2023/12/05 10:12:55;;;;;;;4.95;3.60;;;;;;;;;;5041012;28;20067;-69
2023/12/05 10:15:25;;;;;;;4.43;3.67;;;;;;;;;;5041413;28;20041;-68
2023/12/05 10:17:54;;;;;;;5.88;3.33;;;;;;;;;;5047778;28;20561;-68
2023/12/05 10:20:23;;;;;;;12.23;4.18;;;;;;;;;;5047870;28;20072;-74
2023/12/05 10:22:52;;;;;;;3.50;3.30;;;;;;;;;;5043424;28;20088;-70
2023/12/05 10:25:21;;;;;;;12.70;10.00;;;;;;;;;;5038503;28;20107;-69
2023/12/05 10:28:01;;;;;;;15.55;7.85;;;;;;;;;;5041456;28;20053;-70
2023/12/05 10:30:33;;;;;;;15.23;8.98;;;;;;;;;;5047037;28;20053;-71
2023/12/05 10:33:11;;;;;;;9.32;4.85;;;;;;;;;;5049255;28;20405;-69
2023/12/05 10:35:41;;;;;;;4.78;4.10;;;;;;;;;;5046218;28;20056;-69
2023/12/05 10:38:11;;;;;;;5.45;3.40;;;;;;;;;;5041288;28;20056;-69
2023/12/05 10:40:53;;;;;;;7.55;4.40;;;;;;;;;;5046797;28;20049;-70
2023/12/05 10:43:21;;;;;;;5.47;3.95;;;;;;;;;;5048762;28;20049;-67
2023/12/05 10:45:51;;;;;;;5.68;4.20;;;;;;;;;;5048205;28;20056;-72
2023/12/05 10:48:20;;;;;;;8.38;3.53;;;;;;;;;;5046523;28;20055;-71
2023/12/05 10:50:51;;;;;;;4.65;3.08;;;;;;;;;;5045951;28;20057;-72
2023/12/05 10:53:20;;;;;;;4.97;3.13;;;;;;;;;;5037503;28;20474;-68
2023/12/05 10:55:48;;;;;;;4.80;3.03;;;;;;;;;;5041844;28;20045;-68
2023/12/05 10:58:17;;;;;;;9.60;3.25;;;;;;;;;;5040892;28;20052;-72
2023/12/05 11:00:46;;;;;;;3.92;3.55;;;;;;;;;;5048423;28;20057;-72
2023/12/05 11:03:16;;;;;;;7.60;3.40;;;;;;;;;;5033250;28;20049;-68
2023/12/05 11:05:45;;;;;;;7.72;3.95;;;;;;;;;;5042470;28;20049;-71
2023/12/05 11:08:13;;;;;;;6.80;3.58;;;;;;;;;;5037727;28;20414;-72
2023/12/05 11:10:42;;;;;;;5.47;3.13;;;;;;;;;;5046498;28;20045;-69
2023/12/05 11:13:13;;;;;;;9.95;3.80;;;;;;;;;;5034129;28;20057;-70
2023/12/05 11:15:42;;;;;;;6.50;4.90;;;;;;;;;;5043388;28;20055;-71
2023/12/05 11:18:14;;;;;;;6.15;3.20;;;;;;;;;;5040315;28;20442;-74
2023/12/05 11:20:58;;;;;;;6.70;4.85;;;;;;;;;;5038790;28;20037;-70
2023/12/05 11:23:41;;;;;;;7.20;4.00;;;;;;;;;;5043401;28;20044;-76
2023/12/05 11:26:16;;;;;;;3.75;3.45;;;;;;;;;;5043498;28;20564;-76
2023/12/05 11:28:53;;;;;;;4.18;3.65;;;;;;;;;;5037584;28;20159;-69
2023/12/05 11:31:26;;;;;;;4.78;3.30;;;;;;;;;;5036591;28;20094;-74
2023/12/05 11:34:06;;;;;;;3.15;2.95;;;;;;;;;;5046461;28;20068;-72
2023/12/05 11:36:39;;;;;;;3.90;3.20;;;;;;;;;;5040515;28;20141;-70
2023/12/05 11:39:08;;;;;;;4.53;2.80;;;;;;;;;;5038220;28;20500;-68
2023/12/05 11:41:38;;;;;;;2.42;2.33;;;;;;;;;;5044803;28;20049;-69
2023/12/05 11:44:24;;;;;;;2.75;2.55;;;;;;;;;;5044520;28;20152;-73
2023/12/05 11:46:54;;;;;;;3.40;2.83;;;;;;;;;;5040687;28;20067;-69
2023/12/05 11:49:29;;;;;;;2.92;2.80;;;;;;;;;;5040365;28;20375;-68
2023/12/05 11:52:08;;;;;;;2.72;2.58;;;;;;;;;;5038164;28;20054;-69
2023/12/05 11:54:36;;;;;;;3.38;2.50;;;;;;;;;;5043161;28;20083;-68
2023/12/05 11:57:13;;;;;;;3.40;2.40;;;;;;;;;;5040860;28;20056;-67
2023/12/05 11:59:41;;;;;;;3.17;2.60;;;;;;;;;;5035996;28;20049;-71
2023/12/05 12:02:13;;;;;;;3.47;2.83;;;;;;;;;;5040574;28;20588;-69
2023/12/05 12:04:42;;;;;;;2.35;2.25;;;;;;;;;;5041317;28;20513;-71
2023/12/05 12:07:10;;;;;;;3.58;2.53;;;;;;;;;;5033033;28;20049;-67
2023/12/05 12:09:40;;;;;;;2.90;2.42;;;;;;;;;;5040238;28;20049;-74
2023/12/05 12:12:09;;;;;;;4.03;2.83;;;;;;;;;;5038906;28;20065;-68
2023/12/05 12:14:43;;;;;;;2.83;2.63;;;;;;;;;;5029512;28;20077;-69
2023/12/05 12:17:12;;;;;;;9.52;2.50;;;;;;;;;;5033051;28;20576;-72
2023/12/05 12:19:41;;;;;;;3.53;2.75;;;;;;;;;;5040462;28;20474;-67
2023/12/05 12:22:12;;;;;;;3.78;2.30;;;;;;;;;;5043833;28;20049;-71
2023/12/05 12:24:42;;;;;;;3.40;2.40;;;;;;;;;;5041176;28;20056;-74
2023/12/05 12:27:11;;;;;;;2.50;2.40;;;;;;;;;;5044379;28;20060;-74
2023/12/05 12:29:53;;;;;;;2.53;2.20;;;;;;;;;;5037565;28;20049;-71
2023/12/05 12:32:21;;;;;;;9.23;3.40;;;;;;;;;;5040044;28;20496;-67
2023/12/05 12:34:50;;;;;;;3.33;3.03;;;;;;;;;;5042263;28;20052;-72
2023/12/05 12:37:18;;;;;;;8.85;3.42;;;;;;;;;;5038266;28;20497;-68
2023/12/05 12:39:50;;;;;;;4.10;3.10;;;;;;;;;;5038077;28;20045;-72
2023/12/05 12:42:19;;;;;;;3.65;3.35;;;;;;;;;;5047886;28;20136;-72
2023/12/05 12:44:49;;;;;;;8.77;3.35;;;;;;;;;;5047316;28;20057;-68
2023/12/05 12:47:18;;;;;;;3.78;3.47;;;;;;;;;;5048856;28;20048;-71
2023/12/05 12:49:46;;;;;;;5.35;3.53;;;;;;;;;;5051064;28;20134;-67
2023/12/05 12:52:15;;;;;;;3.15;2.95;;;;;;;;;;5041925;28;20514;-66
2023/12/05 12:54:44;;;;;;;2.72;2.50;;;;;;;;;;5040760;28;20053;-74
2023/12/05 12:57:13;;;;;;;3.20;2.85;;;;;;;;;;5035868;28;20053;-70
2023/12/05 12:59:42;;;;;;;3.30;3.00;;;;;;;;;;5044760;28;20049;-71
2023/12/05 13:02:11;;;;;;;2.90;2.70;;;;;;;;;;5049769;28;20053;-73
2023/12/05 13:04:44;;;;;;;2.58;2.38;;;;;;;;;;5045108;28;20103;-72
2023/12/05 13:07:21;;;;;;;4.40;2.58;;;;;;;;;;5044076;28;20616;-68
2023/12/05 13:09:50;;;;;;;3.65;2.60;;;;;;;;;;5040258;28;20580;-68
2023/12/05 13:12:19;;;;;;;4.28;2.95;;;;;;;;;;5044463;28;20060;-71
2023/12/05 13:14:49;;;;;;;5.38;2.65;;;;;;;;;;5042795;28;20049;-74
2023/12/05 13:17:19;;;;;;;5.95;3.05;;;;;;;;;;5045667;28;20060;-72
2023/12/05 13:19:48;;;;;;;5.30;3.25;;;;;;;;;;5045894;28;20073;-70
2023/12/05 13:22:17;;;;;;;6.60;3.22;;;;;;;;;;5051096;28;20583;-71
2023/12/05 13:24:48;;;;;;;8.13;3.40;;;;;;;;;;5043203;28;20045;-70
2023/12/05 13:27:16;;;;;;;5.68;3.40;;;;;;;;;;5047413;28;20061;-70
2023/12/05 13:29:52;;;;;;;10.50;3.47;;;;;;;;;;5046763;28;20041;-70
2023/12/05 13:32:22;;;;;;;3.40;3.15;;;;;;;;;;5046560;28;20448;-69
2023/12/05 13:34:50;;;;;;;4.22;2.90;;;;;;;;;;5048152;28;20056;-72
2023/12/05 13:37:19;;;;;;;5.45;3.45;;;;;;;;;;5044226;28;20064;-71
2023/12/05 13:39:47;;;;;;;6.45;2.80;;;;;;;;;;5038458;28;20045;-68
2023/12/05 13:42:16;;;;;;;5.35;3.35;;;;;;;;;;5035233;28;20122;-79
2023/12/05 13:44:45;;;;;;;3.53;3.22;;;;;;;;;;5041746;28;20053;-68
2023/12/05 13:47:13;;;;;;;6.95;4.57;;;;;;;;;;5047304;28;20052;-73
2023/12/05 13:49:43;;;;;;;3.95;3.65;;;;;;;;;;5048019;28;20498;-68
2023/12/05 13:52:11;;;;;;;8.77;7.88;;;;;;;;;;5041063;28;20049;-68
2023/12/05 13:54:40;;;;;;;22.05;18.33;;;;;;;;;;5040710;28;20052;-74
2023/12/05 13:57:09;;;;;;;7.18;4.90;;;;;;;;;;5045880;28;20472;-72
2023/12/05 13:59:37;;;;;;;5.43;4.93;;;;;;;;;;5047520;28;20439;-65
2023/12/05 14:02:06;;;;;;;5.47;3.47;;;;;;;;;;5043103;28;21195;-69
2023/12/05 14:04:35;;;;;;;4.80;3.95;;;;;;;;;;5043888;28;20050;-69
2023/12/05 14:07:05;;;;;;;5.00;3.75;;;;;;;;;;5039561;28;20057;-72
2023/12/05 14:09:33;;;;;;;4.25;3.95;;;;;;;;;;5038053;28;20052;-70
2023/12/05 14:12:02;;;;;;;4.65;4.25;;;;;;;;;;5047882;28;20056;-68
2023/12/05 14:14:30;;;;;;;4.35;3.40;;;;;;;;;;5043866;28;20162;-67
2023/12/05 14:16:59;;;;;;;5.18;3.47;;;;;;;;;;5038293;28;20049;-71
2023/12/05 14:19:28;;;;;;;3.67;3.38;;;;;;;;;;5045381;28;20521;-68
2023/12/05 14:21:56;;;;;;;4.97;3.40;;;;;;;;;;5042816;28;20554;-70
2023/12/05 14:24:26;;;;;;;4.40;3.00;;;;;;;;;;5042054;28;20060;-70
2023/12/05 14:26:55;;;;;;;2.83;2.65;;;;;;;;;;5037277;28;20056;-72
2023/12/05 14:29:23;;;;;;;3.90;2.88;;;;;;;;;;5049562;28;20517;-72
2023/12/05 14:31:52;;;;;;;2.97;2.78;;;;;;;;;;5047894;28;20048;-69
2023/12/05 14:34:20;;;;;;;4.97;3.42;;;;;;;;;;5041409;28;20126;-71
2023/12/05 14:36:49;;;;;;;3.15;2.95;;;;;;;;;;5037309;28;20501;-72
2023/12/05 14:39:19;;;;;;;4.32;2.97;;;;;;;;;;5036087;28;20109;-70
2023/12/05 14:41:49;;;;;;;3.15;3.03;;;;;;;;;;5048812;28;20052;-74
2023/12/05 14:44:18;;;;;;;2.90;2.80;;;;;;;;;;5035147;28;20128;-72
2023/12/05 14:46:46;;;;;;;2.92;2.80;;;;;;;;;;5034031;28;20378;-69
2023/12/05 14:49:16;;;;;;;3.83;3.42;;;;;;;;;;5037714;28;20044;-71
2023/12/05 14:51:44;;;;;;;4.28;3.55;;;;;;;;;;5037733;28;20045;-75
2023/12/05 14:54:13;;;;;;;4.57;3.60;;;;;;;;;;5038673;28;20159;-67
2023/12/05 14:56:41;;;;;;;3.58;2.97;;;;;;;;;;5045864;28;20045;-68